Flight Track Log - Related Links

Times and Time Zones

All times are in EDT time to prevent confusion due to time zone crossing. See the N92FC flight status page for this flight to view local times or setup timezone preferences in your user account.


Time Position Orientation Groundspeed Altitude Reporting Facility
EDT Latitude Longitude Course Direction KTS MPH feet Rate Location/Type
Sat 12:30:00 PM 30.7292 -86.6313 337° Northwest  Level FlightAware Approximate
Sat 12:31:00 PM 30.7478 -86.5646 72° East  Level Estimated
Sat 12:32:00 PM 30.7665 -86.4974 72° East  Level Estimated
Sat 12:33:00 PM 30.7852 -86.4302 72° East  Level Estimated
Sat 12:34:00 PM 30.8038 -86.3629 72° East  Level Estimated
Sat 12:35:00 PM 30.8224 -86.2956 72° East  Level Estimated
Sat 12:36:00 PM 30.8410 -86.2283 72° East  Level Estimated
Sat 12:37:00 PM 30.8595 -86.1609 72° East  Level Estimated
Sat 12:38:00 PM 30.8780 -86.0936 72° East  Level Estimated
Sat 12:39:00 PM 30.8964 -86.0262 72° East  Level Estimated
Sat 12:39:46 PM 30.5283 -85.7697 72° East 205 236 18,200  Level Jacksonville Center
Sat 12:40:00 PM 30.9149 -85.9588 72° East  Level Estimated
Sat 12:40:46 PM 30.5486 -85.7122 68° East 210 242 19,000  Level Jacksonville Center
Sat 12:41:00 PM 30.9333 -85.8913 72° East  Level Estimated
Sat 12:41:46 PM 30.5686 -85.6453 71° East 229 264 19,400  Level Jacksonville Center
Sat 12:42:00 PM 30.9516 -85.8239 72° East  Level Estimated
Sat 12:42:46 PM 30.5953 -85.5808 64° Northeast 229 264 20,100  Level Jacksonville Center
Sat 12:43:00 PM 30.9699 -85.7564 72° East  Level Estimated
Sat 12:43:46 PM 30.6175 -85.5164 68° East 229 264 20,700  Level Jacksonville Center
Sat 12:44:00 PM 30.9882 -85.6889 72° East  Level Estimated
Sat 12:44:46 PM 30.6397 -85.4519 68° East 224 258 21,000  Level Jacksonville Center
Sat 12:45:00 PM 31.0065 -85.6213 72° East  Level Estimated
Sat 12:45:46 PM 30.6661 -85.3825 66° East 219 252 21,000  Level Jacksonville Center
Sat 12:46:46 PM 30.6883 -85.3106 70° East 229 264 21,000  Level Jacksonville Center
Sat 12:47:46 PM 30.7147 -85.2414 66° East 234 269 21,000  Level Jacksonville Center
Sat 12:48:46 PM 30.7472 -85.1719 61° Northeast 234 269 21,000  Level Jacksonville Center
Sat 12:49:46 PM 30.7858 -85.1075 55° Northeast 234 269 21,000  Level Jacksonville Center
Sat 12:50:46 PM 30.8267 -85.0456 52° Northeast 234 269 21,000  Level Jacksonville Center
Sat 12:51:46 PM 30.8694 -84.9861 50° Northeast 234 269 21,000  Level Jacksonville Center
Sat 12:52:46 PM 30.9081 -84.9239 54° Northeast 240 276 21,000  Level Jacksonville Center
Sat 12:53:46 PM 30.9506 -84.8644 50° Northeast 240 276 21,000  Level Jacksonville Center
Sat 12:54:46 PM 30.9933 -84.7997 52° Northeast 240 276 21,000  Level Jacksonville Center
Sat 12:55:46 PM 31.0319 -84.7375 54° Northeast 240 276 21,000  Level Jacksonville Center
Sat 12:56:46 PM 31.0703 -84.6753 54° Northeast 240 276 21,000  Level Jacksonville Center
Sat 12:57:46 PM 31.1089 -84.6106 55° Northeast 240 276 21,000  Level Jacksonville Center
Sat 12:58:46 PM 31.1392 -84.5383 64° Northeast 240 276 21,000  Level Jacksonville Center
Sat 12:59:46 PM 31.1631 -84.4658 69° East 240 276 21,000  Level Jacksonville Center
Sat 01:00:46 PM 31.1847 -84.3908 71° East 240 276 21,000  Level Jacksonville Center
Sat 01:01:46 PM 31.2086 -84.3136 70° East 240 276 21,000  Level Jacksonville Center
Sat 01:02:46 PM 31.2303 -84.2386 71° East 240 276 21,000  Level Jacksonville Center
Sat 01:03:27 PM 31.2433 -84.1925 72° East 244 281 21,000  Level Jacksonville Center
Sat 01:04:21 PM 31.2692 -84.1225 67° East 244 281 21,000  Level Jacksonville Center
Sat 01:05:22 PM 31.2886 -84.0472 73° East 246 283 21,000  Level Jacksonville Center
Sat 01:06:22 PM 31.3100 -83.9697 72° East 245 282 21,000  Level Jacksonville Center
Sat 01:07:23 PM 31.3317 -83.8969 71° East 247 284 21,000  Level Jacksonville Center
Sat 01:08:30 PM 31.3572 -83.8072 72° East 251 289 21,000  Level Jacksonville Center
Sat 01:09:46 PM 31.3850 -83.7175 70° East 245 282 21,000  Level Jacksonville Center
Sat 01:10:19 PM 31.4000 -83.6642 72° East 250 288 21,000  Level Jacksonville Center
Sat 01:11:19 PM 31.4214 -83.5914 71° East 250 288 21,000  Level Jacksonville Center
Sat 01:12:46 PM 31.4511 -83.4892 71° East 270 311 21,000  Level Jacksonville Center
Sat 01:13:46 PM 31.4744 -83.4114 71° East 263 303 21,000  Level Jacksonville Center
Sat 01:14:46 PM 31.5103 -83.3433 58° Northeast 250 288 21,000  Level Jacksonville Center
Sat 01:15:46 PM 31.5439 -83.2753 60° Northeast 240 276 21,000  Level Jacksonville Center
Sat 01:16:46 PM 31.5775 -83.2022 62° Northeast 240 276 21,000  Level Jacksonville Center
Sat 01:17:46 PM 31.6067 -83.1317 64° Northeast 240 276 21,000  Level Jacksonville Center
Sat 01:18:46 PM 31.6381 -83.0608 62° Northeast 240 276 21,000  Level Jacksonville Center
Sat 01:19:46 PM 31.6739 -82.9928 58° Northeast 240 276 21,000  Level Jacksonville Center
Sat 01:20:46 PM 31.7072 -82.9219 61° Northeast 240 276 21,000 -400 Level Jacksonville Center
Sat 01:21:46 PM 31.7406 -82.8461 63° Northeast 246 283 20,200 -800 Descending Jacksonville Center
Sat 01:22:46 PM 31.7864 -82.7728 54° Northeast 257 296 19,400 -750 Descending Jacksonville Center
Sat 01:23:46 PM 31.8364 -82.6994 51° Northeast 269 310 18,700 -750 Descending Jacksonville Center
Sat 01:24:46 PM 31.8864 -82.6258 51° Northeast 274 315 17,900 -750 Descending Jacksonville Center
Sat 01:25:46 PM 31.9364 -82.5522 51° Northeast 279 321 17,200 -500 Descending Jacksonville Center
Sat 01:26:46 PM 31.9842 -82.4811 52° Northeast 279 321 16,900 -150 Descending Jacksonville Center
Sat 01:27:46 PM 32.0278 -82.4097 54° Northeast 274 315 16,900  Level Jacksonville Center
Sat 01:28:46 PM 32.0525 -82.3336 69° East 259 298 16,900  Level Jacksonville Center
Sat 01:29:46 PM 32.0667 -82.2528 78° East 247 284 16,900  Level Jacksonville Center
Sat 01:30:46 PM 32.0831 -82.1644 78° East 247 284 16,900  Level Jacksonville Center
Sat 01:31:46 PM 32.0972 -82.0833 78° East 247 284 16,900  Level Jacksonville Center
Sat 01:32:46 PM 32.1114 -82.0119 77° East 247 284 16,900  Level Jacksonville Center
Sat 01:33:46 PM 32.1272 -81.9211 78° East 247 284 16,900  Level Jacksonville Center
Sat 01:34:46 PM 32.1414 -81.8475 77° East 252 290 16,900 -350 Level Jacksonville Center
Sat 01:35:46 PM 32.1508 -81.7539 83° East 258 297 16,200 -950 Descending Jacksonville Center
Sat 01:36:46 PM 32.1628 -81.6631 81° East 271 312 15,000 -1,250 Descending Jacksonville Center
Sat 01:37:46 PM 32.1722 -81.5819 82° East 281 323 13,700 -1,400 Descending Jacksonville Center
Sat 01:38:46 PM 32.1858 -81.4811 81° East 275 316 12,200 -1,400 Descending Jacksonville Center
Sat 01:39:46 PM 32.1994 -81.3925 80° East 275 316 10,900 -1,250 Descending Jacksonville Center
Sat 01:40:46 PM 32.2194 -81.3186 72° East 275 316 9,700 -1,400 Descending Jacksonville Center
Sat 01:41:46 PM 32.2433 -81.2247 73° East 265 305 8,100 -1,450 Descending Jacksonville Center
Sat 01:42:46 PM 32.2589 -81.1408 78° East 258 297 6,800 -1,300 Descending Jacksonville Center

Login

Don't have an account? Register now (free) for customized features, flight alerts, and more!